sensor_id;sensor_type;location;lat;lon;timestamp;P1;durP1;ratioP1;P2;durP2;ratioP2
26086;SDS011;13851;43.434;28.338;2023-01-10T00:00:21;38.13;;;21.27;;
26086;SDS011;13851;43.434;28.338;2023-01-10T00:02:48;38.63;;;22.65;;
26086;SDS011;13851;43.434;28.338;2023-01-10T00:05:14;38.67;;;24.02;;
26086;SDS011;13851;43.434;28.338;2023-01-10T00:07:40;39.95;;;24.30;;
26086;SDS011;13851;43.434;28.338;2023-01-10T00:10:06;40.65;;;23.35;;
26086;SDS011;13851;43.434;28.338;2023-01-10T00:12:32;31.90;;;23.73;;
26086;SDS011;13851;43.434;28.338;2023-01-10T00:15:15;32.65;;;23.52;;
26086;SDS011;13851;43.434;28.338;2023-01-10T00:17:41;36.55;;;23.83;;
26086;SDS011;13851;43.434;28.338;2023-01-10T00:20:07;38.92;;;22.33;;
26086;SDS011;13851;43.434;28.338;2023-01-10T00:22:33;37.85;;;23.98;;
26086;SDS011;13851;43.434;28.338;2023-01-10T00:24:58;41.55;;;24.38;;
26086;SDS011;13851;43.434;28.338;2023-01-10T00:27:24;38.53;;;23.25;;
26086;SDS011;13851;43.434;28.338;2023-01-10T00:29:49;34.25;;;22.70;;
26086;SDS011;13851;43.434;28.338;2023-01-10T00:32:16;36.38;;;23.50;;
26086;SDS011;13851;43.434;28.338;2023-01-10T00:34:42;35.90;;;22.00;;
26086;SDS011;13851;43.434;28.338;2023-01-10T00:37:08;36.55;;;23.17;;
26086;SDS011;13851;43.434;28.338;2023-01-10T00:39:33;39.38;;;24.10;;
26086;SDS011;13851;43.434;28.338;2023-01-10T00:41:59;36.47;;;23.48;;
26086;SDS011;13851;43.434;28.338;2023-01-10T00:44:43;35.88;;;24.58;;
26086;SDS011;13851;43.434;28.338;2023-01-10T00:47:10;37.13;;;25.02;;
26086;SDS011;13851;43.434;28.338;2023-01-10T00:49:37;43.53;;;25.13;;
26086;SDS011;13851;43.434;28.338;2023-01-10T00:52:02;40.92;;;24.95;;
26086;SDS011;13851;43.434;28.338;2023-01-10T00:54:28;43.10;;;26.83;;
26086;SDS011;13851;43.434;28.338;2023-01-10T00:56:53;41.67;;;26.40;;
26086;SDS011;13851;43.434;28.338;2023-01-10T00:59:19;42.40;;;26.75;;
26086;SDS011;13851;43.434;28.338;2023-01-10T01:01:45;42.83;;;28.30;;
26086;SDS011;13851;43.434;28.338;2023-01-10T01:04:11;40.55;;;27.45;;
26086;SDS011;13851;43.434;28.338;2023-01-10T01:06:36;46.47;;;27.60;;
26086;SDS011;13851;43.434;28.338;2023-01-10T01:09:02;42.78;;;27.90;;
26086;SDS011;13851;43.434;28.338;2023-01-10T01:11:27;42.67;;;27.33;;
26086;SDS011;13851;43.434;28.338;2023-01-10T01:13:53;45.90;;;27.15;;
26086;SDS011;13851;43.434;28.338;2023-01-10T01:16:18;37.22;;;24.98;;
26086;SDS011;13851;43.434;28.338;2023-01-10T01:18:44;36.95;;;25.60;;
26086;SDS011;13851;43.434;28.338;2023-01-10T01:21:09;39.28;;;24.48;;
26086;SDS011;13851;43.434;28.338;2023-01-10T01:23:35;34.97;;;24.77;;
26086;SDS011;13851;43.434;28.338;2023-01-10T01:26:01;35.38;;;23.58;;
26086;SDS011;13851;43.434;28.338;2023-01-10T01:28:27;38.95;;;25.30;;
26086;SDS011;13851;43.434;28.338;2023-01-10T01:30:52;35.78;;;23.10;;
26086;SDS011;13851;43.434;28.338;2023-01-10T01:33:18;36.08;;;23.40;;
26086;SDS011;13851;43.434;28.338;2023-01-10T01:35:45;37.40;;;24.05;;
26086;SDS011;13851;43.434;28.338;2023-01-10T01:38:12;36.95;;;24.77;;
26086;SDS011;13851;43.434;28.338;2023-01-10T01:40:38;40.17;;;24.88;;
26086;SDS011;13851;43.434;28.338;2023-01-10T01:43:14;40.40;;;25.10;;
26086;SDS011;13851;43.434;28.338;2023-01-10T01:45:46;36.38;;;24.38;;
26086;SDS011;13851;43.434;28.338;2023-01-10T01:48:19;40.28;;;25.38;;
26086;SDS011;13851;43.434;28.338;2023-01-10T01:50:58;34.70;;;23.02;;
26086;SDS011;13851;43.434;28.338;2023-01-10T01:56:02;31.52;;;22.50;;
26086;SDS011;13851;43.434;28.338;2023-01-10T01:58:38;35.22;;;23.15;;
26086;SDS011;13851;43.434;28.338;2023-01-10T02:01:12;39.22;;;24.60;;
26086;SDS011;13851;43.434;28.338;2023-01-10T02:03:39;38.22;;;23.77;;
26086;SDS011;13851;43.434;28.338;2023-01-10T02:06:06;43.95;;;23.23;;
26086;SDS011;13851;43.434;28.338;2023-01-10T02:08:35;37.97;;;24.00;;
26086;SDS011;13851;43.434;28.338;2023-01-10T02:11:08;36.40;;;24.50;;
26086;SDS011;13851;43.434;28.338;2023-01-10T02:13:37;42.17;;;25.77;;
26086;SDS011;13851;43.434;28.338;2023-01-10T02:16:06;34.90;;;23.70;;
26086;SDS011;13851;43.434;28.338;2023-01-10T02:18:32;40.65;;;24.50;;
26086;SDS011;13851;43.434;28.338;2023-01-10T02:34:59;40.20;;;25.25;;
26086;SDS011;13851;43.434;28.338;2023-01-10T02:37:59;40.13;;;25.45;;
26086;SDS011;13851;43.434;28.338;2023-01-10T02:40:52;40.72;;;25.30;;
26086;SDS011;13851;43.434;28.338;2023-01-10T02:46:51;43.20;;;25.23;;
26086;SDS011;13851;43.434;28.338;2023-01-10T02:49:16;40.35;;;24.88;;
26086;SDS011;13851;43.434;28.338;2023-01-10T02:51:43;36.10;;;23.88;;
26086;SDS011;13851;43.434;28.338;2023-01-10T02:54:19;39.38;;;25.58;;
26086;SDS011;13851;43.434;28.338;2023-01-10T03:10:02;42.92;;;26.33;;
26086;SDS011;13851;43.434;28.338;2023-01-10T03:15:19;39.90;;;27.10;;
26086;SDS011;13851;43.434;28.338;2023-01-10T03:17:46;47.40;;;28.23;;
26086;SDS011;13851;43.434;28.338;2023-01-10T03:20:16;41.27;;;27.00;;
26086;SDS011;13851;43.434;28.338;2023-01-10T03:22:44;41.45;;;26.45;;
26086;SDS011;13851;43.434;28.338;2023-01-10T03:25:11;37.63;;;26.55;;
26086;SDS011;13851;43.434;28.338;2023-01-10T03:27:49;42.63;;;27.83;;
26086;SDS011;13851;43.434;28.338;2023-01-10T03:30:30;40.90;;;27.42;;
26086;SDS011;13851;43.434;28.338;2023-01-10T03:33:09;44.35;;;28.77;;
26086;SDS011;13851;43.434;28.338;2023-01-10T03:38:48;47.83;;;30.17;;
26086;SDS011;13851;43.434;28.338;2023-01-10T03:43:53;43.15;;;28.55;;
26086;SDS011;13851;43.434;28.338;2023-01-10T03:46:53;45.20;;;27.75;;
26086;SDS011;13851;43.434;28.338;2023-01-10T03:49:24;40.67;;;27.20;;
26086;SDS011;13851;43.434;28.338;2023-01-10T03:51:51;47.58;;;29.92;;
26086;SDS011;13851;43.434;28.338;2023-01-10T03:54:19;41.60;;;27.52;;
26086;SDS011;13851;43.434;28.338;2023-01-10T03:56:45;45.63;;;28.45;;
26086;SDS011;13851;43.434;28.338;2023-01-10T03:59:14;51.65;;;30.88;;
26086;SDS011;13851;43.434;28.338;2023-01-10T04:01:45;43.08;;;26.42;;
26086;SDS011;13851;43.434;28.338;2023-01-10T04:04:11;42.47;;;27.33;;
26086;SDS011;13851;43.434;28.338;2023-01-10T04:06:38;50.63;;;27.55;;
26086;SDS011;13851;43.434;28.338;2023-01-10T04:09:06;46.80;;;27.83;;
26086;SDS011;13851;43.434;28.338;2023-01-10T04:11:32;56.35;;;38.90;;
26086;SDS011;13851;43.434;28.338;2023-01-10T04:14:00;46.38;;;29.27;;
26086;SDS011;13851;43.434;28.338;2023-01-10T04:16:26;53.60;;;32.65;;
26086;SDS011;13851;43.434;28.338;2023-01-10T04:18:51;43.83;;;28.05;;
26086;SDS011;13851;43.434;28.338;2023-01-10T04:21:17;38.67;;;28.08;;
26086;SDS011;13851;43.434;28.338;2023-01-10T04:23:42;61.97;;;42.55;;
26086;SDS011;13851;43.434;28.338;2023-01-10T04:26:08;47.70;;;30.58;;
26086;SDS011;13851;43.434;28.338;2023-01-10T04:28:33;41.08;;;24.63;;
26086;SDS011;13851;43.434;28.338;2023-01-10T04:31:01;45.55;;;32.22;;
26086;SDS011;13851;43.434;28.338;2023-01-10T04:33:27;46.08;;;31.55;;
26086;SDS011;13851;43.434;28.338;2023-01-10T04:35:52;39.38;;;24.30;;
26086;SDS011;13851;43.434;28.338;2023-01-10T04:38:21;37.72;;;26.00;;
26086;SDS011;13851;43.434;28.338;2023-01-10T04:40:55;39.85;;;24.17;;
26086;SDS011;13851;43.434;28.338;2023-01-10T04:43:22;39.20;;;24.67;;
26086;SDS011;13851;43.434;28.338;2023-01-10T04:45:49;43.88;;;24.95;;
26086;SDS011;13851;43.434;28.338;2023-01-10T04:48:14;35.78;;;24.33;;
26086;SDS011;13851;43.434;28.338;2023-01-10T04:50:40;38.55;;;23.13;;
26086;SDS011;13851;43.434;28.338;2023-01-10T04:53:06;40.47;;;24.88;;
26086;SDS011;13851;43.434;28.338;2023-01-10T04:55:32;43.60;;;25.23;;
26086;SDS011;13851;43.434;28.338;2023-01-10T04:57:58;48.97;;;29.33;;
26086;SDS011;13851;43.434;28.338;2023-01-10T05:00:24;38.67;;;25.95;;
26086;SDS011;13851;43.434;28.338;2023-01-10T05:02:56;37.05;;;23.23;;
26086;SDS011;13851;43.434;28.338;2023-01-10T05:05:22;36.55;;;23.92;;
26086;SDS011;13851;43.434;28.338;2023-01-10T05:07:48;41.50;;;23.90;;
26086;SDS011;13851;43.434;28.338;2023-01-10T05:10:13;40.15;;;23.92;;
26086;SDS011;13851;43.434;28.338;2023-01-10T05:12:39;39.13;;;22.77;;
26086;SDS011;13851;43.434;28.338;2023-01-10T05:15:05;36.92;;;21.50;;
26086;SDS011;13851;43.434;28.338;2023-01-10T05:17:30;34.00;;;22.70;;
26086;SDS011;13851;43.434;28.338;2023-01-10T05:19:56;37.95;;;22.55;;
26086;SDS011;13851;43.434;28.338;2023-01-10T05:22:22;33.47;;;22.10;;
26086;SDS011;13851;43.434;28.338;2023-01-10T05:24:47;36.38;;;24.10;;
26086;SDS011;13851;43.434;28.338;2023-01-10T05:27:14;41.88;;;26.35;;
26086;SDS011;13851;43.434;28.338;2023-01-10T05:29:39;45.97;;;26.77;;
26086;SDS011;13851;43.434;28.338;2023-01-10T05:32:05;43.67;;;25.30;;
26086;SDS011;13851;43.434;28.338;2023-01-10T05:34:30;54.90;;;31.90;;
26086;SDS011;13851;43.434;28.338;2023-01-10T05:36:56;52.53;;;32.53;;
26086;SDS011;13851;43.434;28.338;2023-01-10T05:39:21;47.65;;;33.58;;
26086;SDS011;13851;43.434;28.338;2023-01-10T05:41:47;41.67;;;27.15;;
26086;SDS011;13851;43.434;28.338;2023-01-10T05:44:13;42.38;;;25.38;;
26086;SDS011;13851;43.434;28.338;2023-01-10T05:46:39;33.92;;;22.02;;
26086;SDS011;13851;43.434;28.338;2023-01-10T05:49:04;35.60;;;21.85;;
26086;SDS011;13851;43.434;28.338;2023-01-10T05:51:32;35.05;;;20.88;;
26086;SDS011;13851;43.434;28.338;2023-01-10T05:53:58;33.60;;;21.65;;
26086;SDS011;13851;43.434;28.338;2023-01-10T05:56:23;34.40;;;20.17;;
26086;SDS011;13851;43.434;28.338;2023-01-10T05:58:50;35.17;;;19.85;;
26086;SDS011;13851;43.434;28.338;2023-01-10T06:01:15;36.95;;;20.98;;
26086;SDS011;13851;43.434;28.338;2023-01-10T06:03:41;40.53;;;21.88;;
26086;SDS011;13851;43.434;28.338;2023-01-10T06:06:07;29.13;;;19.00;;
26086;SDS011;13851;43.434;28.338;2023-01-10T06:08:32;34.47;;;19.90;;
26086;SDS011;13851;43.434;28.338;2023-01-10T06:11:00;29.83;;;20.00;;
26086;SDS011;13851;43.434;28.338;2023-01-10T06:13:25;32.88;;;19.75;;
26086;SDS011;13851;43.434;28.338;2023-01-10T06:15:51;29.05;;;18.98;;
26086;SDS011;13851;43.434;28.338;2023-01-10T06:18:17;34.28;;;19.63;;
26086;SDS011;13851;43.434;28.338;2023-01-10T06:20:42;34.13;;;20.92;;
26086;SDS011;13851;43.434;28.338;2023-01-10T06:23:08;30.27;;;19.90;;
26086;SDS011;13851;43.434;28.338;2023-01-10T06:25:35;32.25;;;20.05;;
26086;SDS011;13851;43.434;28.338;2023-01-10T06:28:08;29.63;;;19.98;;
26086;SDS011;13851;43.434;28.338;2023-01-10T06:30:35;34.00;;;20.20;;
26086;SDS011;13851;43.434;28.338;2023-01-10T06:33:01;31.83;;;20.10;;
26086;SDS011;13851;43.434;28.338;2023-01-10T06:35:31;35.03;;;21.55;;
26086;SDS011;13851;43.434;28.338;2023-01-10T06:37:57;34.90;;;20.50;;
26086;SDS011;13851;43.434;28.338;2023-01-10T06:40:23;33.25;;;21.38;;
26086;SDS011;13851;43.434;28.338;2023-01-10T06:42:50;32.97;;;20.25;;
26086;SDS011;13851;43.434;28.338;2023-01-10T06:45:15;34.70;;;20.27;;
26086;SDS011;13851;43.434;28.338;2023-01-10T06:47:42;32.53;;;20.50;;
26086;SDS011;13851;43.434;28.338;2023-01-10T06:50:08;36.60;;;21.30;;
26086;SDS011;13851;43.434;28.338;2023-01-10T06:52:34;33.88;;;21.80;;
26086;SDS011;13851;43.434;28.338;2023-01-10T06:55:00;36.20;;;22.42;;
26086;SDS011;13851;43.434;28.338;2023-01-10T06:57:25;35.85;;;22.83;;
26086;SDS011;13851;43.434;28.338;2023-01-10T06:59:52;31.80;;;22.55;;
26086;SDS011;13851;43.434;28.338;2023-01-10T07:02:18;32.88;;;20.95;;
26086;SDS011;13851;43.434;28.338;2023-01-10T07:04:44;35.40;;;23.10;;
26086;SDS011;13851;43.434;28.338;2023-01-10T07:07:09;36.65;;;22.63;;
26086;SDS011;13851;43.434;28.338;2023-01-10T07:09:35;35.45;;;21.77;;
26086;SDS011;13851;43.434;28.338;2023-01-10T07:12:03;33.35;;;22.88;;
26086;SDS011;13851;43.434;28.338;2023-01-10T07:14:28;31.52;;;21.70;;
26086;SDS011;13851;43.434;28.338;2023-01-10T07:16:54;33.92;;;22.27;;
26086;SDS011;13851;43.434;28.338;2023-01-10T07:19:19;35.15;;;22.50;;
26086;SDS011;13851;43.434;28.338;2023-01-10T07:21:45;33.35;;;21.58;;
26086;SDS011;13851;43.434;28.338;2023-01-10T07:24:10;38.92;;;22.75;;
26086;SDS011;13851;43.434;28.338;2023-01-10T07:26:36;31.40;;;21.27;;
26086;SDS011;13851;43.434;28.338;2023-01-10T07:29:01;34.13;;;20.40;;
26086;SDS011;13851;43.434;28.338;2023-01-10T07:31:27;32.75;;;20.02;;
26086;SDS011;13851;43.434;28.338;2023-01-10T07:33:53;32.33;;;21.15;;
26086;SDS011;13851;43.434;28.338;2023-01-10T07:36:18;36.50;;;22.20;;
26086;SDS011;13851;43.434;28.338;2023-01-10T07:38:44;30.23;;;20.33;;
26086;SDS011;13851;43.434;28.338;2023-01-10T07:41:10;32.60;;;19.70;;
26086;SDS011;13851;43.434;28.338;2023-01-10T07:43:35;30.70;;;20.30;;
26086;SDS011;13851;43.434;28.338;2023-01-10T07:46:01;28.92;;;19.77;;
26086;SDS011;13851;43.434;28.338;2023-01-10T07:48:31;31.70;;;20.10;;
26086;SDS011;13851;43.434;28.338;2023-01-10T07:50:57;29.73;;;20.50;;
26086;SDS011;13851;43.434;28.338;2023-01-10T07:53:24;30.33;;;20.05;;
26086;SDS011;13851;43.434;28.338;2023-01-10T07:55:50;33.85;;;20.00;;
26086;SDS011;13851;43.434;28.338;2023-01-10T07:58:16;28.88;;;19.63;;
26086;SDS011;13851;43.434;28.338;2023-01-10T08:00:42;34.20;;;20.55;;
26086;SDS011;13851;43.434;28.338;2023-01-10T08:03:09;31.95;;;21.27;;
26086;SDS011;13851;43.434;28.338;2023-01-10T08:05:35;33.50;;;19.98;;
26086;SDS011;13851;43.434;28.338;2023-01-10T08:08:04;28.15;;;20.27;;
26086;SDS011;13851;43.434;28.338;2023-01-10T08:10:31;31.30;;;19.48;;
26086;SDS011;13851;43.434;28.338;2023-01-10T08:12:58;29.52;;;20.70;;
26086;SDS011;13851;43.434;28.338;2023-01-10T08:15:23;31.05;;;19.17;;
26086;SDS011;13851;43.434;28.338;2023-01-10T08:17:49;29.05;;;20.70;;
26086;SDS011;13851;43.434;28.338;2023-01-10T08:20:14;32.55;;;21.70;;
26086;SDS011;13851;43.434;28.338;2023-01-10T08:22:40;30.75;;;19.38;;
26086;SDS011;13851;43.434;28.338;2023-01-10T08:25:06;30.05;;;20.63;;
26086;SDS011;13851;43.434;28.338;2023-01-10T08:27:32;31.63;;;20.40;;
26086;SDS011;13851;43.434;28.338;2023-01-10T08:29:57;30.30;;;19.77;;
26086;SDS011;13851;43.434;28.338;2023-01-10T08:32:23;33.85;;;21.35;;
26086;SDS011;13851;43.434;28.338;2023-01-10T08:34:49;34.03;;;21.23;;
26086;SDS011;13851;43.434;28.338;2023-01-10T08:37:14;33.30;;;20.00;;
26086;SDS011;13851;43.434;28.338;2023-01-10T08:39:40;34.05;;;20.95;;
26086;SDS011;13851;43.434;28.338;2023-01-10T08:42:05;37.47;;;20.88;;
26086;SDS011;13851;43.434;28.338;2023-01-10T08:44:31;25.23;;;17.70;;
26086;SDS011;13851;43.434;28.338;2023-01-10T08:46:57;32.90;;;19.35;;
26086;SDS011;13851;43.434;28.338;2023-01-10T08:49:22;26.20;;;18.10;;
26086;SDS011;13851;43.434;28.338;2023-01-10T08:51:50;29.92;;;18.08;;
26086;SDS011;13851;43.434;28.338;2023-01-10T08:54:16;29.33;;;17.75;;
26086;SDS011;13851;43.434;28.338;2023-01-10T08:56:41;29.17;;;18.40;;
26086;SDS011;13851;43.434;28.338;2023-01-10T08:59:07;29.60;;;18.90;;
26086;SDS011;13851;43.434;28.338;2023-01-10T09:01:32;28.17;;;17.88;;
26086;SDS011;13851;43.434;28.338;2023-01-10T09:03:58;28.98;;;17.90;;
26086;SDS011;13851;43.434;28.338;2023-01-10T09:06:23;29.08;;;18.02;;
26086;SDS011;13851;43.434;28.338;2023-01-10T09:08:49;27.63;;;18.23;;
26086;SDS011;13851;43.434;28.338;2023-01-10T09:11:15;27.85;;;17.23;;
26086;SDS011;13851;43.434;28.338;2023-01-10T09:13:41;26.95;;;18.02;;
26086;SDS011;13851;43.434;28.338;2023-01-10T09:16:06;28.48;;;17.60;;
26086;SDS011;13851;43.434;28.338;2023-01-10T09:18:32;25.90;;;16.27;;
26086;SDS011;13851;43.434;28.338;2023-01-10T09:20:58;28.10;;;17.92;;
26086;SDS011;13851;43.434;28.338;2023-01-10T09:23:24;25.92;;;16.95;;
26086;SDS011;13851;43.434;28.338;2023-01-10T09:25:51;26.02;;;16.98;;
26086;SDS011;13851;43.434;28.338;2023-01-10T09:28:19;25.65;;;16.77;;
26086;SDS011;13851;43.434;28.338;2023-01-10T09:30:45;25.25;;;16.60;;
26086;SDS011;13851;43.434;28.338;2023-01-10T09:33:11;26.13;;;15.70;;
26086;SDS011;13851;43.434;28.338;2023-01-10T09:35:38;25.17;;;16.27;;
26086;SDS011;13851;43.434;28.338;2023-01-10T09:38:06;27.00;;;17.00;;
26086;SDS011;13851;43.434;28.338;2023-01-10T09:46:40;26.17;;;15.82;;
26086;SDS011;13851;43.434;28.338;2023-01-10T09:52:21;21.40;;;15.98;;
26086;SDS011;13851;43.434;28.338;2023-01-10T09:54:51;27.25;;;17.33;;
26086;SDS011;13851;43.434;28.338;2023-01-10T09:57:20;24.92;;;15.98;;
26086;SDS011;13851;43.434;28.338;2023-01-10T09:59:47;22.08;;;14.63;;
26086;SDS011;13851;43.434;28.338;2023-01-10T10:05:08;22.52;;;12.80;;
26086;SDS011;13851;43.434;28.338;2023-01-10T10:07:45;20.13;;;14.40;;
26086;SDS011;13851;43.434;28.338;2023-01-10T10:10:26;24.85;;;14.48;;
26086;SDS011;13851;43.434;28.338;2023-01-10T10:15:56;20.30;;;13.48;;
26086;SDS011;13851;43.434;28.338;2023-01-10T10:24:56;20.95;;;13.43;;
26086;SDS011;13851;43.434;28.338;2023-01-10T10:35:35;22.52;;;13.75;;
26086;SDS011;13851;43.434;28.338;2023-01-10T10:38:14;22.90;;;13.60;;
26086;SDS011;13851;43.434;28.338;2023-01-10T10:40:41;24.58;;;13.82;;
26086;SDS011;13851;43.434;28.338;2023-01-10T10:43:11;26.00;;;14.05;;
26086;SDS011;13851;43.434;28.338;2023-01-10T10:45:44;23.88;;;13.95;;
26086;SDS011;13851;43.434;28.338;2023-01-10T10:48:23;21.63;;;13.70;;
26086;SDS011;13851;43.434;28.338;2023-01-10T10:51:09;27.43;;;15.20;;
26086;SDS011;13851;43.434;28.338;2023-01-10T10:53:40;23.80;;;14.70;;
26086;SDS011;13851;43.434;28.338;2023-01-10T10:56:06;24.77;;;14.93;;
26086;SDS011;13851;43.434;28.338;2023-01-10T10:58:39;23.48;;;15.55;;
26086;SDS011;13851;43.434;28.338;2023-01-10T11:01:10;23.20;;;14.93;;
26086;SDS011;13851;43.434;28.338;2023-01-10T11:04:23;29.25;;;15.95;;
26086;SDS011;13851;43.434;28.338;2023-01-10T11:06:31;23.95;;;14.30;;
26086;SDS011;13851;43.434;28.338;2023-01-10T11:09:00;26.58;;;14.93;;
26086;SDS011;13851;43.434;28.338;2023-01-10T11:11:29;21.08;;;13.60;;
26086;SDS011;13851;43.434;28.338;2023-01-10T11:14:04;20.83;;;13.65;;
26086;SDS011;13851;43.434;28.338;2023-01-10T11:16:32;17.55;;;12.63;;
26086;SDS011;13851;43.434;28.338;2023-01-10T11:19:17;24.60;;;12.73;;
26086;SDS011;13851;43.434;28.338;2023-01-10T11:21:49;23.63;;;13.30;;
26086;SDS011;13851;43.434;28.338;2023-01-10T11:24:49;19.23;;;12.77;;
26086;SDS011;13851;43.434;28.338;2023-01-10T11:27:15;21.55;;;12.15;;
26086;SDS011;13851;43.434;28.338;2023-01-10T11:29:46;24.10;;;12.60;;
26086;SDS011;13851;43.434;28.338;2023-01-10T11:32:18;19.50;;;12.93;;
26086;SDS011;13851;43.434;28.338;2023-01-10T11:34:48;21.92;;;12.77;;
26086;SDS011;13851;43.434;28.338;2023-01-10T11:37:24;24.13;;;12.23;;
26086;SDS011;13851;43.434;28.338;2023-01-10T11:42:42;20.20;;;11.85;;
26086;SDS011;13851;43.434;28.338;2023-01-10T11:47:44;20.65;;;11.82;;
26086;SDS011;13851;43.434;28.338;2023-01-10T11:50:16;22.03;;;12.63;;
26086;SDS011;13851;43.434;28.338;2023-01-10T11:52:45;20.15;;;12.20;;
26086;SDS011;13851;43.434;28.338;2023-01-10T11:55:19;19.33;;;11.57;;
26086;SDS011;13851;43.434;28.338;2023-01-10T12:00:44;22.38;;;11.52;;
26086;SDS011;13851;43.434;28.338;2023-01-10T12:03:25;21.65;;;11.68;;
26086;SDS011;13851;43.434;28.338;2023-01-10T12:06:01;19.63;;;11.75;;
26086;SDS011;13851;43.434;28.338;2023-01-10T12:08:33;20.98;;;10.65;;
26086;SDS011;13851;43.434;28.338;2023-01-10T12:14:20;23.55;;;12.57;;
26086;SDS011;13851;43.434;28.338;2023-01-10T12:16:27;23.58;;;12.68;;
26086;SDS011;13851;43.434;28.338;2023-01-10T12:18:59;25.33;;;12.35;;
26086;SDS011;13851;43.434;28.338;2023-01-10T12:21:47;21.35;;;12.73;;
26086;SDS011;13851;43.434;28.338;2023-01-10T12:26:53;16.77;;;11.35;;
26086;SDS011;13851;43.434;28.338;2023-01-10T12:29:21;17.67;;;11.63;;
26086;SDS011;13851;43.434;28.338;2023-01-10T12:31:50;22.25;;;12.68;;
26086;SDS011;13851;43.434;28.338;2023-01-10T12:34:19;19.35;;;11.32;;
26086;SDS011;13851;43.434;28.338;2023-01-10T12:36:57;20.08;;;11.43;;
26086;SDS011;13851;43.434;28.338;2023-01-10T12:39:31;21.83;;;11.15;;
26086;SDS011;13851;43.434;28.338;2023-01-10T12:42:03;19.48;;;10.88;;
26086;SDS011;13851;43.434;28.338;2023-01-10T12:45:02;17.00;;;10.55;;
26086;SDS011;13851;43.434;28.338;2023-01-10T12:47:47;16.63;;;10.65;;
26086;SDS011;13851;43.434;28.338;2023-01-10T12:50:22;22.08;;;11.43;;
26086;SDS011;13851;43.434;28.338;2023-01-10T12:55:36;22.80;;;12.45;;
26086;SDS011;13851;43.434;28.338;2023-01-10T12:58:11;21.15;;;13.10;;
26086;SDS011;13851;43.434;28.338;2023-01-10T13:00:46;24.23;;;13.80;;
26086;SDS011;13851;43.434;28.338;2023-01-10T13:05:46;24.38;;;13.05;;
26086;SDS011;13851;43.434;28.338;2023-01-10T13:08:14;23.25;;;14.38;;
26086;SDS011;13851;43.434;28.338;2023-01-10T13:10:47;26.10;;;13.55;;
26086;SDS011;13851;43.434;28.338;2023-01-10T13:13:25;25.38;;;14.45;;
26086;SDS011;13851;43.434;28.338;2023-01-10T13:21:25;26.35;;;13.45;;
26086;SDS011;13851;43.434;28.338;2023-01-10T13:23:52;25.25;;;13.75;;
26086;SDS011;13851;43.434;28.338;2023-01-10T13:26:22;25.40;;;14.40;;
26086;SDS011;13851;43.434;28.338;2023-01-10T13:28:52;25.67;;;14.05;;
26086;SDS011;13851;43.434;28.338;2023-01-10T13:31:22;24.48;;;13.73;;
26086;SDS011;13851;43.434;28.338;2023-01-10T13:33:57;22.30;;;13.35;;
26086;SDS011;13851;43.434;28.338;2023-01-10T13:36:40;19.83;;;13.48;;
26086;SDS011;13851;43.434;28.338;2023-01-10T13:39:43;25.00;;;13.13;;
26086;SDS011;13851;43.434;28.338;2023-01-10T13:50:49;21.00;;;13.10;;
26086;SDS011;13851;43.434;28.338;2023-01-10T13:52:49;24.73;;;13.48;;
26086;SDS011;13851;43.434;28.338;2023-01-10T14:01:00;16.92;;;10.63;;
26086;SDS011;13851;43.434;28.338;2023-01-10T14:03:45;18.08;;;12.05;;
26086;SDS011;13851;43.434;28.338;2023-01-10T14:09:00;19.92;;;11.32;;
26086;SDS011;13851;43.434;28.338;2023-01-10T14:11:45;16.20;;;11.43;;
26086;SDS011;13851;43.434;28.338;2023-01-10T14:16:44;20.05;;;11.20;;
26086;SDS011;13851;43.434;28.338;2023-01-10T14:19:47;23.27;;;12.38;;
26086;SDS011;13851;43.434;28.338;2023-01-10T14:22:31;19.48;;;11.73;;
26086;SDS011;13851;43.434;28.338;2023-01-10T14:25:01;21.52;;;11.85;;
26086;SDS011;13851;43.434;28.338;2023-01-10T14:27:48;17.65;;;12.32;;
26086;SDS011;13851;43.434;28.338;2023-01-10T14:30:25;21.83;;;13.40;;
26086;SDS011;13851;43.434;28.338;2023-01-10T14:32:54;20.95;;;12.45;;
26086;SDS011;13851;43.434;28.338;2023-01-10T14:35:26;22.08;;;12.98;;
26086;SDS011;13851;43.434;28.338;2023-01-10T14:37:57;26.98;;;13.88;;
26086;SDS011;13851;43.434;28.338;2023-01-10T14:40:33;24.55;;;15.45;;
26086;SDS011;13851;43.434;28.338;2023-01-10T14:43:08;26.20;;;13.67;;
26086;SDS011;13851;43.434;28.338;2023-01-10T14:45:44;26.80;;;14.00;;
26086;SDS011;13851;43.434;28.338;2023-01-10T14:56:28;18.20;;;11.70;;
26086;SDS011;13851;43.434;28.338;2023-01-10T14:59:14;20.02;;;12.27;;
26086;SDS011;13851;43.434;28.338;2023-01-10T15:01:52;21.67;;;11.73;;
26086;SDS011;13851;43.434;28.338;2023-01-10T15:04:20;20.83;;;10.68;;
26086;SDS011;13851;43.434;28.338;2023-01-10T15:09:28;20.40;;;10.25;;
26086;SDS011;13851;43.434;28.338;2023-01-10T15:11:56;20.88;;;11.00;;
26086;SDS011;13851;43.434;28.338;2023-01-10T15:14:25;19.60;;;10.52;;
26086;SDS011;13851;43.434;28.338;2023-01-10T15:16:55;20.60;;;10.98;;
26086;SDS011;13851;43.434;28.338;2023-01-10T15:19:26;25.05;;;12.40;;
26086;SDS011;13851;43.434;28.338;2023-01-10T15:21:55;24.33;;;12.48;;
26086;SDS011;13851;43.434;28.338;2023-01-10T15:24:22;25.48;;;12.05;;
26086;SDS011;13851;43.434;28.338;2023-01-10T15:26:50;21.67;;;11.65;;
26086;SDS011;13851;43.434;28.338;2023-01-10T15:29:19;25.25;;;12.90;;
26086;SDS011;13851;43.434;28.338;2023-01-10T15:31:47;24.08;;;14.23;;
26086;SDS011;13851;43.434;28.338;2023-01-10T15:34:18;26.73;;;14.32;;
26086;SDS011;13851;43.434;28.338;2023-01-10T15:36:55;30.55;;;14.07;;
26086;SDS011;13851;43.434;28.338;2023-01-10T15:39:24;30.67;;;15.25;;
26086;SDS011;13851;43.434;28.338;2023-01-10T15:41:58;23.90;;;14.68;;
26086;SDS011;13851;43.434;28.338;2023-01-10T15:47:51;20.58;;;12.98;;
26086;SDS011;13851;43.434;28.338;2023-01-10T15:50:02;23.20;;;13.38;;
26086;SDS011;13851;43.434;28.338;2023-01-10T15:52:48;25.20;;;13.35;;
26086;SDS011;13851;43.434;28.338;2023-01-10T15:55:19;20.67;;;11.23;;
26086;SDS011;13851;43.434;28.338;2023-01-10T16:00:47;20.13;;;11.60;;
26086;SDS011;13851;43.434;28.338;2023-01-10T16:05:59;22.65;;;11.98;;
26086;SDS011;13851;43.434;28.338;2023-01-10T16:08:26;31.05;;;15.25;;
26086;SDS011;13851;43.434;28.338;2023-01-10T16:10:57;24.45;;;11.35;;
26086;SDS011;13851;43.434;28.338;2023-01-10T16:13:24;26.13;;;11.45;;
26086;SDS011;13851;43.434;28.338;2023-01-10T16:15:53;24.30;;;12.07;;
26086;SDS011;13851;43.434;28.338;2023-01-10T16:18:20;24.10;;;11.70;;
26086;SDS011;13851;43.434;28.338;2023-01-10T16:20:46;24.13;;;11.60;;
26086;SDS011;13851;43.434;28.338;2023-01-10T16:23:15;22.77;;;11.40;;
26086;SDS011;13851;43.434;28.338;2023-01-10T16:25:44;20.55;;;11.90;;
26086;SDS011;13851;43.434;28.338;2023-01-10T16:28:15;17.98;;;11.23;;
26086;SDS011;13851;43.434;28.338;2023-01-10T16:30:42;27.27;;;13.65;;
26086;SDS011;13851;43.434;28.338;2023-01-10T16:33:15;28.35;;;14.57;;
26086;SDS011;13851;43.434;28.338;2023-01-10T16:35:45;26.48;;;13.65;;